createdAt,value
2022-10-07T00:01:00.004Z,5.90
2022-10-07T00:03:28.036Z,6.07
2022-10-07T00:08:30.057Z,6.38
2022-10-07T00:10:57.273Z,6.05
2022-10-07T00:13:24.086Z,6.07
2022-10-07T00:15:50.967Z,6.22
2022-10-07T00:18:17.955Z,5.93
2022-10-07T00:20:44.790Z,6.43
2022-10-07T00:23:11.581Z,6.68
2022-10-07T00:25:38.853Z,6.45
2022-10-07T00:28:06.671Z,6.45
2022-10-07T00:30:33.602Z,7.32
2022-10-07T00:33:00.641Z,6.18
2022-10-07T00:35:27.862Z,6.32
2022-10-07T00:37:54.685Z,6.60
2022-10-07T00:40:21.547Z,7.00
2022-10-07T00:42:48.251Z,6.88
2022-10-07T00:45:16.973Z,6.78
2022-10-07T00:47:52.959Z,6.78
2022-10-07T00:50:27.182Z,6.82
2022-10-07T00:52:59.376Z,6.88
2022-10-07T00:55:28.576Z,6.32
2022-10-07T00:57:59.116Z,6.53
2022-10-07T01:00:26.058Z,6.93
2022-10-07T01:02:52.915Z,6.15
2022-10-07T01:05:20.280Z,6.00
2022-10-07T01:07:52.612Z,5.40
2022-10-07T01:10:23.327Z,6.35
2022-10-07T01:13:05.513Z,6.03
2022-10-07T01:16:02.700Z,6.07
2022-10-07T01:18:49.564Z,6.13
2022-10-07T01:21:40.979Z,6.00
2022-10-07T01:24:39.951Z,5.60
2022-10-07T01:27:15.316Z,5.07
2022-10-07T01:29:56.082Z,4.97
2022-10-07T01:32:37.804Z,4.90
2022-10-07T01:35:10.145Z,4.75
2022-10-07T01:37:44.673Z,5.05
2022-10-07T01:40:17.253Z,5.18
2022-10-07T01:42:45.911Z,5.35
2022-10-07T01:45:21.292Z,5.35
2022-10-07T01:47:49.159Z,5.55
2022-10-07T01:50:17.541Z,5.47
2022-10-07T01:53:12.727Z,4.90
2022-10-07T01:55:53.134Z,5.13
2022-10-07T01:58:45.522Z,4.90
2022-10-07T02:01:26.945Z,4.97
2022-10-07T02:04:04.726Z,5.05
2022-10-07T02:07:10.531Z,5.10
2022-10-07T02:09:51.513Z,4.55
2022-10-07T02:12:29.858Z,4.63
2022-10-07T02:15:20.050Z,4.65
2022-10-07T02:17:51.508Z,4.60
2022-10-07T02:20:24.757Z,4.30
2022-10-07T02:22:55.345Z,4.30
2022-10-07T02:25:23.887Z,4.45
2022-10-07T02:27:54.550Z,4.65
2022-10-07T02:30:25.939Z,5.00
2022-10-07T02:32:57.489Z,4.63
2022-10-07T02:35:29.854Z,4.57
2022-10-07T02:38:00.077Z,4.38
2022-10-07T02:40:34.997Z,4.45
2022-10-07T02:43:29.464Z,4.93
2022-10-07T02:46:13.200Z,4.65
2022-10-07T02:48:50.336Z,4.35
2022-10-07T02:51:21.517Z,4.80
2022-10-07T02:53:52.016Z,3.92
2022-10-07T02:56:21.066Z,4.28
2022-10-07T02:58:48.944Z,4.20
2022-10-07T03:01:21.801Z,4.35
2022-10-07T03:03:50.427Z,4.53
2022-10-07T03:06:23.006Z,4.43
2022-10-07T03:08:51.544Z,4.75
2022-10-07T03:13:46.510Z,4.55
2022-10-07T03:16:13.590Z,4.32
2022-10-07T03:18:41.276Z,4.35
2022-10-07T03:23:52.334Z,4.22
2022-10-07T03:26:21.773Z,4.25
2022-10-07T03:28:49.481Z,4.05
2022-10-07T03:31:16.599Z,4.03
2022-10-07T03:33:47.718Z,3.97
2022-10-07T03:36:14.705Z,4.45
2022-10-07T03:38:44.779Z,4.15
2022-10-07T03:41:12.770Z,4.55
2022-10-07T03:43:40.053Z,3.80
2022-10-07T03:46:09.219Z,4.63
2022-10-07T03:48:37.684Z,4.40
2022-10-07T03:51:04.664Z,4.15
2022-10-07T03:53:34.464Z,4.68
2022-10-07T03:56:01.982Z,4.22
2022-10-07T03:58:30.623Z,4.35
2022-10-07T04:01:09.309Z,4.22
2022-10-07T04:03:38.337Z,4.45
2022-10-07T04:06:05.998Z,4.15
2022-10-07T04:08:34.845Z,4.45
2022-10-07T04:11:04.394Z,3.97
2022-10-07T04:13:34.161Z,3.80
2022-10-07T04:16:08.674Z,4.13
2022-10-07T04:18:36.306Z,4.32
2022-10-07T04:21:03.387Z,4.68
2022-10-07T04:23:32.370Z,4.05
2022-10-07T04:25:59.155Z,3.83
2022-10-07T04:28:26.711Z,4.22
2022-10-07T04:31:04.730Z,4.10
2022-10-07T04:33:39.308Z,3.70
2022-10-07T04:36:08.827Z,4.00
2022-10-07T04:38:42.794Z,3.92
2022-10-07T04:41:10.949Z,4.38
2022-10-07T04:43:39.762Z,3.75
2022-10-07T04:46:15.116Z,4.00
2022-10-07T04:48:47.933Z,3.85
2022-10-07T04:51:18.344Z,4.22
2022-10-07T04:53:56.848Z,4.35
2022-10-07T04:56:39.559Z,4.05
2022-10-07T04:59:08.620Z,4.45
2022-10-07T05:04:04.061Z,4.25
2022-10-07T05:06:32.882Z,4.00
2022-10-07T05:09:00.119Z,4.40
2022-10-07T05:11:29.824Z,4.57
2022-10-07T05:14:04.359Z,4.43
2022-10-07T05:16:32.889Z,4.97
2022-10-07T05:19:00.341Z,4.32
2022-10-07T05:21:27.849Z,3.95
2022-10-07T05:23:54.588Z,5.03
2022-10-07T05:26:27.984Z,4.15
2022-10-07T05:28:59.532Z,4.40
2022-10-07T05:31:34.415Z,4.07
2022-10-07T05:34:03.034Z,4.25
2022-10-07T05:36:30.497Z,2.75
2022-10-07T05:38:59.625Z,3.72
2022-10-07T05:41:58.663Z,4.32
2022-10-07T05:44:33.615Z,4.10
2022-10-07T05:47:03.225Z,3.88
2022-10-07T05:49:30.891Z,4.40
2022-10-07T05:51:58.561Z,4.35
2022-10-07T05:54:26.015Z,4.53
2022-10-07T05:56:54.729Z,4.70
2022-10-07T06:01:50.260Z,4.55
2022-10-07T06:04:20.800Z,4.93
2022-10-07T06:06:51.829Z,4.43
2022-10-07T06:09:37.502Z,4.60
2022-10-07T06:12:29.124Z,5.00
2022-10-07T06:14:57.451Z,5.22
2022-10-07T06:17:24.623Z,5.55
2022-10-07T06:19:54.769Z,6.22
2022-10-07T06:22:23.161Z,6.60
2022-10-07T06:24:52.054Z,6.43
2022-10-07T06:27:19.343Z,6.38
2022-10-07T06:29:46.061Z,6.50
2022-10-07T06:32:12.841Z,6.53
2022-10-07T06:34:41.137Z,6.60
2022-10-07T06:37:13.941Z,6.70
2022-10-07T06:39:41.340Z,7.03
2022-10-07T06:42:09.489Z,7.05
2022-10-07T06:44:58.392Z,8.73
2022-10-07T06:47:25.927Z,8.60
2022-10-07T06:49:52.701Z,9.25
2022-10-07T06:52:19.538Z,9.30
2022-10-07T06:54:48.204Z,10.43
2022-10-07T06:57:40.829Z,10.88
2022-10-07T07:00:04.378Z,12.63
2022-10-07T07:02:33.341Z,11.73
2022-10-07T07:05:08.362Z,13.05
2022-10-07T07:07:35.834Z,13.20
2022-10-07T07:10:03.433Z,13.80
2022-10-07T07:12:33.267Z,12.48
2022-10-07T07:15:00.874Z,13.38
2022-10-07T07:17:30.414Z,13.45
2022-10-07T07:19:58.533Z,12.82
2022-10-07T07:22:25.407Z,13.27
2022-10-07T07:24:52.363Z,14.32
2022-10-07T07:27:20.302Z,14.10
2022-10-07T07:29:48.052Z,13.88
2022-10-07T07:32:14.851Z,13.57
2022-10-07T07:34:43.525Z,12.68
2022-10-07T07:37:14.910Z,11.93
2022-10-07T07:39:47.197Z,12.50
2022-10-07T07:42:16.848Z,10.82
2022-10-07T07:44:44.288Z,9.65
2022-10-07T07:47:17.095Z,9.20
2022-10-07T07:49:46.051Z,8.75
2022-10-07T07:52:18.994Z,7.60
2022-10-07T07:54:48.383Z,7.60
2022-10-07T07:57:15.474Z,7.40
2022-10-07T07:59:42.728Z,6.85
2022-10-07T08:02:12.406Z,6.57
2022-10-07T08:04:42.325Z,6.30
2022-10-07T08:07:13.216Z,6.30
2022-10-07T08:09:42.963Z,5.90
2022-10-07T08:12:09.933Z,5.70
2022-10-07T08:14:37.837Z,5.70
2022-10-07T08:17:05.996Z,5.90
2022-10-07T08:19:33.355Z,5.47
2022-10-07T08:22:01.126Z,5.00
2022-10-07T08:24:30.555Z,5.30
2022-10-07T08:29:25.910Z,4.88
2022-10-07T08:31:52.825Z,4.78
2022-10-07T08:34:19.573Z,4.85
2022-10-07T08:36:48.007Z,4.72
2022-10-07T08:39:16.051Z,4.20
2022-10-07T08:41:57.054Z,4.38
2022-10-07T08:44:29.936Z,4.13
2022-10-07T08:47:30.364Z,3.83
2022-10-07T08:50:19.766Z,4.43
2022-10-07T08:53:00.150Z,4.20
2022-10-07T08:55:33.176Z,3.60
2022-10-07T08:58:15.802Z,3.65
2022-10-07T09:01:07.460Z,3.20
2022-10-07T09:03:59.326Z,3.60
2022-10-07T09:06:38.195Z,3.33
2022-10-07T09:09:16.447Z,3.35
2022-10-07T09:11:47.083Z,2.70
2022-10-07T09:14:33.510Z,2.90
2022-10-07T09:17:38.157Z,2.80
2022-10-07T09:20:17.519Z,3.05
2022-10-07T09:22:50.975Z,2.92
2022-10-07T09:25:27.143Z,2.70
2022-10-07T09:27:54.536Z,2.80
2022-10-07T09:30:27.823Z,2.67
2022-10-07T09:32:55.752Z,2.85
2022-10-07T09:35:25.989Z,3.22
2022-10-07T09:38:08.202Z,2.80
2022-10-07T09:41:01.227Z,2.60
2022-10-07T09:43:30.240Z,2.58
2022-10-07T09:45:57.853Z,2.67
2022-10-07T09:48:28.900Z,2.33
2022-10-07T09:51:13.793Z,2.60
2022-10-07T09:53:58.997Z,2.47
2022-10-07T09:56:36.882Z,2.13
2022-10-07T09:59:33.794Z,2.25
2022-10-07T10:02:17.423Z,1.97
2022-10-07T10:04:50.313Z,2.25
2022-10-07T10:07:19.651Z,2.40
2022-10-07T10:09:54.772Z,2.15
2022-10-07T10:12:24.870Z,2.35
2022-10-07T10:14:56.032Z,2.55
2022-10-07T10:17:35.086Z,2.15
2022-10-07T10:20:20.730Z,1.80
2022-10-07T10:22:47.806Z,2.05
2022-10-07T10:25:35.555Z,2.25
2022-10-07T10:28:22.087Z,2.05
2022-10-07T10:30:59.918Z,1.90
2022-10-07T10:33:41.335Z,2.00
2022-10-07T10:36:19.381Z,2.40
2022-10-07T10:41:50.628Z,2.47
2022-10-07T10:44:23.815Z,1.88
2022-10-07T10:47:03.850Z,2.20
2022-10-07T10:50:07.557Z,2.08
2022-10-07T10:52:45.329Z,1.77
2022-10-07T10:58:02.966Z,1.77
2022-10-07T11:00:59.801Z,2.65
2022-10-07T11:03:34.196Z,1.80
2022-10-07T11:06:07.642Z,2.05
2022-10-07T11:08:38.517Z,1.63
2022-10-07T11:11:12.494Z,1.83
2022-10-07T11:13:54.639Z,1.73
2022-10-07T11:16:44.241Z,1.98
2022-10-07T11:19:20.274Z,1.92
2022-10-07T11:21:50.590Z,2.80
2022-10-07T11:24:37.414Z,2.22
2022-10-07T11:27:33.571Z,2.40
2022-10-07T11:30:03.175Z,1.63
2022-10-07T11:32:56.271Z,1.63
2022-10-07T11:35:31.277Z,1.90
2022-10-07T11:38:10.349Z,1.88
2022-10-07T11:40:45.593Z,2.05
2022-10-07T11:43:36.245Z,2.10
2022-10-07T11:46:39.229Z,1.42
2022-10-07T11:49:21.985Z,1.73
2022-10-07T11:51:58.373Z,1.52
2022-10-07T11:54:28.544Z,1.52
2022-10-07T11:56:59.436Z,1.27
2022-10-07T11:59:47.974Z,1.30
2022-10-07T12:02:30.844Z,1.73
2022-10-07T12:05:02.529Z,1.40
2022-10-07T12:07:35.200Z,1.33
2022-10-07T12:10:02.275Z,1.80
2022-10-07T12:12:45.256Z,1.45
2022-10-07T12:15:25.995Z,1.30
2022-10-07T12:18:04.947Z,1.40
2022-10-07T12:20:34.723Z,1.50
2022-10-07T12:23:20.414Z,1.33
2022-10-07T12:25:59.458Z,1.35
2022-10-07T12:28:41.971Z,1.38
2022-10-07T12:31:15.049Z,1.20
2022-10-07T12:34:09.141Z,1.20
2022-10-07T12:36:41.004Z,1.30
2022-10-07T12:39:12.317Z,0.93
2022-10-07T12:41:46.306Z,1.00
2022-10-07T12:44:34.259Z,1.10
2022-10-07T12:47:16.346Z,1.13
2022-10-07T12:49:59.153Z,1.20
2022-10-07T12:52:46.849Z,0.98
2022-10-07T12:55:19.910Z,0.93
2022-10-07T12:58:15.321Z,1.33
2022-10-07T13:00:59.823Z,1.02
2022-10-07T13:03:47.734Z,1.20
2022-10-07T13:06:55.191Z,1.13
2022-10-07T13:09:35.109Z,1.02
2022-10-07T13:12:31.407Z,1.25
2022-10-07T13:15:12.103Z,0.98
2022-10-07T13:17:56.174Z,0.93
2022-10-07T13:20:26.035Z,1.00
2022-10-07T13:22:53.170Z,1.10
2022-10-07T13:25:21.085Z,0.82
2022-10-07T13:27:57.261Z,0.77
2022-10-07T13:30:38.957Z,0.95
2022-10-07T13:33:23.088Z,0.88
2022-10-07T13:36:07.326Z,0.90
2022-10-07T13:38:35.458Z,0.82
2022-10-07T13:41:27.477Z,1.10
2022-10-07T13:44:00.691Z,1.20
2022-10-07T13:46:31.162Z,1.30
2022-10-07T13:48:59.311Z,1.10
2022-10-07T13:51:34.571Z,0.90
2022-10-07T13:54:07.932Z,1.10
2022-10-07T13:56:40.203Z,1.38
2022-10-07T13:59:12.434Z,1.30
2022-10-07T14:01:40.726Z,1.20
2022-10-07T14:04:22.380Z,1.23
2022-10-07T14:07:08.532Z,1.20
2022-10-07T14:09:42.812Z,1.47
2022-10-07T14:12:14.995Z,1.08
2022-10-07T14:14:45.705Z,1.20
2022-10-07T14:17:39.668Z,1.15
2022-10-07T14:20:18.983Z,1.25
2022-10-07T14:22:53.560Z,1.15
2022-10-07T14:25:31.864Z,1.00
2022-10-07T14:27:58.863Z,1.00
2022-10-07T14:30:28.758Z,1.10
2022-10-07T14:33:30.343Z,1.00
2022-10-07T14:36:17.516Z,1.30
2022-10-07T14:38:46.905Z,1.20
2022-10-07T14:41:15.818Z,1.00
2022-10-07T14:43:45.307Z,1.13
2022-10-07T14:46:21.357Z,1.02
2022-10-07T14:48:49.713Z,1.17
2022-10-07T14:51:20.113Z,1.05
2022-10-07T14:53:50.816Z,1.10
2022-10-07T14:56:26.986Z,1.10
2022-10-07T14:58:54.913Z,1.02
2022-10-07T15:01:22.238Z,1.00
2022-10-07T15:06:18.446Z,0.93
2022-10-07T15:08:49.068Z,1.05
2022-10-07T15:11:18.922Z,0.80
2022-10-07T15:13:50.222Z,1.05
2022-10-07T15:16:23.465Z,0.80
2022-10-07T15:18:52.898Z,1.15
2022-10-07T15:21:21.767Z,1.08
2022-10-07T15:23:53.178Z,1.30
2022-10-07T15:26:23.569Z,1.40
2022-10-07T15:28:55.465Z,1.10
2022-10-07T15:31:24.709Z,1.08
2022-10-07T15:33:51.852Z,1.17
2022-10-07T15:36:18.936Z,1.48
2022-10-07T15:38:45.768Z,1.20
2022-10-07T15:41:28.333Z,1.27
2022-10-07T15:44:00.012Z,1.23
2022-10-07T15:46:27.919Z,1.65
2022-10-07T15:48:57.781Z,1.25
2022-10-07T15:51:25.907Z,1.20
2022-10-07T15:53:54.088Z,1.40
2022-10-07T15:58:47.844Z,2.42
2022-10-07T16:01:15.558Z,2.58
2022-10-07T16:03:45.032Z,2.10
2022-10-07T16:06:23.425Z,1.40
2022-10-07T16:08:51.855Z,1.30
2022-10-07T16:11:18.646Z,1.10
2022-10-07T16:13:47.433Z,1.55
2022-10-07T16:16:16.713Z,1.65
2022-10-07T16:18:46.155Z,1.70
2022-10-07T16:21:29.108Z,1.40
2022-10-07T16:24:03.607Z,1.30
2022-10-07T16:26:31.120Z,2.10
2022-10-07T16:29:20.465Z,1.70
2022-10-07T16:31:48.661Z,1.67
2022-10-07T16:34:17.496Z,1.98
2022-10-07T16:36:48.084Z,1.50
2022-10-07T16:39:17.782Z,1.58
2022-10-07T16:41:46.725Z,1.70
2022-10-07T16:44:14.960Z,1.85
2022-10-07T16:46:42.075Z,1.88
2022-10-07T16:49:13.708Z,2.35
2022-10-07T16:51:41.106Z,2.15
2022-10-07T16:54:13.324Z,2.03
2022-10-07T16:56:44.169Z,2.22
2022-10-07T16:59:28.913Z,2.03
2022-10-07T17:01:57.027Z,3.08
2022-10-07T17:04:25.137Z,4.70
2022-10-07T17:06:52.690Z,2.10
2022-10-07T17:09:21.691Z,2.42
2022-10-07T17:11:48.587Z,2.28
2022-10-07T17:14:20.546Z,2.67
2022-10-07T17:16:50.620Z,2.75
2022-10-07T17:19:22.770Z,2.30
2022-10-07T17:21:51.242Z,2.95
2022-10-07T17:24:19.740Z,2.60
2022-10-07T17:26:47.505Z,2.40
2022-10-07T17:29:19.376Z,2.22
2022-10-07T17:31:48.484Z,2.13
2022-10-07T17:34:16.454Z,2.35
2022-10-07T17:36:46.128Z,2.10
2022-10-07T17:39:13.132Z,2.85
2022-10-07T17:41:40.013Z,2.20
2022-10-07T17:44:11.603Z,2.38
2022-10-07T17:46:40.079Z,2.35
2022-10-07T17:49:09.374Z,2.40
2022-10-07T17:51:37.372Z,2.30
2022-10-07T17:56:32.179Z,2.00
2022-10-07T17:58:59.680Z,2.28
2022-10-07T18:01:29.571Z,2.00
2022-10-07T18:03:58.488Z,1.90
2022-10-07T18:06:27.464Z,1.95
2022-10-07T18:08:54.670Z,1.83
2022-10-07T18:11:21.514Z,1.73
2022-10-07T18:14:06.823Z,2.10
2022-10-07T18:16:35.464Z,2.28
2022-10-07T18:19:04.579Z,1.88
2022-10-07T18:21:31.782Z,2.22
2022-10-07T18:23:58.889Z,2.10
2022-10-07T18:26:25.797Z,2.47
2022-10-07T18:28:52.846Z,2.25
2022-10-07T18:31:20.402Z,2.30
2022-10-07T18:33:48.844Z,2.70
2022-10-07T18:36:20.846Z,2.22
2022-10-07T18:38:47.957Z,2.50
2022-10-07T18:41:16.569Z,2.47
2022-10-07T18:43:45.462Z,3.08
2022-10-07T18:46:19.275Z,2.45
2022-10-07T18:48:48.070Z,2.53
2022-10-07T18:51:15.927Z,2.75
2022-10-07T18:53:44.616Z,2.45
2022-10-07T18:56:13.798Z,2.45
2022-10-07T18:58:42.621Z,2.55
2022-10-07T19:01:14.979Z,2.60
2022-10-07T19:03:42.742Z,2.20
2022-10-07T19:06:13.222Z,2.60
2022-10-07T19:08:40.288Z,2.67
2022-10-07T19:11:12.764Z,2.35
2022-10-07T19:13:50.158Z,2.20
2022-10-07T19:16:28.657Z,2.80
2022-10-07T19:18:58.118Z,2.22
2022-10-07T19:21:25.979Z,2.45
2022-10-07T19:23:54.891Z,2.50
2022-10-07T19:26:25.131Z,2.50
2022-10-07T19:28:53.351Z,2.92
2022-10-07T19:34:02.495Z,2.42
2022-10-07T19:36:42.286Z,2.67
2022-10-07T19:39:10.730Z,3.45
2022-10-07T19:41:37.949Z,11.23
2022-10-07T19:44:05.514Z,5.45
2022-10-07T19:46:33.753Z,3.95
2022-10-07T19:49:02.448Z,2.92
2022-10-07T19:51:30.774Z,3.35
2022-10-07T19:53:58.762Z,2.90
2022-10-07T19:56:31.915Z,2.88
2022-10-07T19:59:00.805Z,2.95
2022-10-07T20:01:31.810Z,2.65
2022-10-07T20:04:04.590Z,2.72
2022-10-07T20:06:31.531Z,3.60
2022-10-07T20:08:58.728Z,2.72
2022-10-07T20:11:31.175Z,2.83
2022-10-07T20:13:58.785Z,2.67
2022-10-07T20:16:27.388Z,2.70
2022-10-07T20:19:01.058Z,2.80
2022-10-07T20:21:28.852Z,3.10
2022-10-07T20:23:56.629Z,3.25
2022-10-07T20:26:26.223Z,3.05
2022-10-07T20:28:55.421Z,3.17
2022-10-07T20:31:24.550Z,2.88
2022-10-07T20:33:54.026Z,3.00
2022-10-07T20:36:26.604Z,2.75
2022-10-07T20:39:25.416Z,3.00
2022-10-07T20:42:12.128Z,3.05
2022-10-07T20:44:39.338Z,3.50
2022-10-07T20:47:10.748Z,3.42
2022-10-07T20:49:41.445Z,3.60
2022-10-07T20:52:17.155Z,3.70
2022-10-07T20:54:44.946Z,3.63
2022-10-07T20:57:15.511Z,3.78
2022-10-07T20:59:42.749Z,4.00
2022-10-07T21:02:11.367Z,4.70
2022-10-07T21:04:38.573Z,3.85
2022-10-07T21:07:08.575Z,4.28
2022-10-07T21:09:39.819Z,4.25
2022-10-07T21:12:11.029Z,4.60
2022-10-07T21:14:37.819Z,4.35
2022-10-07T21:17:07.057Z,4.95
2022-10-07T21:19:37.918Z,4.80
2022-10-07T21:22:05.903Z,5.10
2022-10-07T21:24:35.664Z,4.85
2022-10-07T21:27:07.584Z,6.20
2022-10-07T21:29:40.133Z,6.35
2022-10-07T21:32:09.463Z,7.47
2022-10-07T21:34:36.589Z,6.78
2022-10-07T21:37:04.566Z,6.82
2022-10-07T21:39:31.734Z,7.20
2022-10-07T21:41:59.256Z,6.85
2022-10-07T21:44:27.533Z,7.28
2022-10-07T21:49:21.157Z,6.60
2022-10-07T21:51:48.009Z,5.70
2022-10-07T21:54:15.455Z,5.70
2022-10-07T21:56:45.220Z,5.18
2022-10-07T21:59:12.819Z,5.95
2022-10-07T22:01:39.758Z,6.30
2022-10-07T22:04:07.270Z,6.93
2022-10-07T22:06:52.435Z,6.55
2022-10-07T22:09:21.294Z,7.22
2022-10-07T22:11:49.030Z,6.70
2022-10-07T22:14:18.628Z,6.63
2022-10-07T22:16:48.152Z,7.80
2022-10-07T22:19:16.560Z,7.57
2022-10-07T22:21:45.617Z,7.30
2022-10-07T22:24:13.008Z,7.07
2022-10-07T22:26:44.311Z,7.43
2022-10-07T22:29:12.624Z,7.18
2022-10-07T22:34:06.829Z,7.10
2022-10-07T22:36:33.875Z,7.38
2022-10-07T22:39:01.426Z,7.10
2022-10-07T22:41:29.130Z,6.75
2022-10-07T22:43:56.044Z,7.80
2022-10-07T22:46:27.512Z,7.78
2022-10-07T22:48:58.290Z,7.88
2022-10-07T22:51:29.324Z,7.38
2022-10-07T22:53:56.921Z,8.13
2022-10-07T22:56:26.219Z,7.60
2022-10-07T22:58:57.979Z,7.30
2022-10-07T23:01:28.507Z,7.55
2022-10-07T23:03:56.023Z,7.22
2022-10-07T23:06:22.892Z,7.28
2022-10-07T23:08:49.669Z,7.30
2022-10-07T23:11:22.295Z,7.53
2022-10-07T23:13:51.022Z,7.78
2022-10-07T23:16:23.197Z,7.45
2022-10-07T23:18:52.787Z,7.80
2022-10-07T23:21:25.124Z,7.82
2022-10-07T23:23:54.195Z,7.35
2022-10-07T23:26:23.425Z,7.40
2022-10-07T23:28:54.629Z,7.78
2022-10-07T23:31:23.109Z,7.90
2022-10-07T23:33:52.076Z,8.32
2022-10-07T23:36:20.451Z,7.88
2022-10-07T23:38:49.886Z,8.82
2022-10-07T23:41:20.906Z,9.15
2022-10-07T23:43:52.073Z,9.55
2022-10-07T23:46:20.540Z,9.52
2022-10-07T23:48:47.787Z,8.90
2022-10-07T23:51:17.298Z,8.80
2022-10-07T23:53:47.657Z,8.65
2022-10-07T23:56:15.073Z,8.05
2022-10-07T23:58:41.947Z,8.47
